Time;durP1;ratioP1;P1;durP2;ratioP2;P2;SDS_P1;SDS_P2;PMS_P1;PMS_P2;Temp;Humidity;BMP_temperature;BMP_pressure;BME280_temperature;BME280_humidity;BME280_pressure;Samples;Min_cycle;Max_cycle;Signal;HPM_P1;HPM_P2
2023/03/11 00:01:47;;;;;;;4.75;3.50;;;;;;;;;;5082359;28;20048;-82
2023/03/11 00:04:13;;;;;;;6.95;3.65;;;;;;;;;;5079212;28;20711;-82
2023/03/11 00:06:38;;;;;;;4.47;3.08;;;;;;;;;;5090536;28;20025;-84
2023/03/11 00:09:04;;;;;;;4.65;3.05;;;;;;;;;;5083971;28;20111;-82
2023/03/11 00:11:29;;;;;;;5.47;3.55;;;;;;;;;;5083866;28;20032;-82
2023/03/11 00:13:55;;;;;;;4.57;2.67;;;;;;;;;;5086694;28;20027;-83
2023/03/11 00:16:20;;;;;;;2.70;1.30;;;;;;;;;;5083878;28;20043;-84
2023/03/11 00:18:49;;;;;;;2.38;1.63;;;;;;;;;;5081271;28;20078;-84
2023/03/11 00:21:17;;;;;;;3.22;2.03;;;;;;;;;;5088687;28;20035;-83
2023/03/11 00:23:42;;;;;;;2.25;1.55;;;;;;;;;;5085845;28;20032;-83
2023/03/11 00:26:08;;;;;;;1.33;1.05;;;;;;;;;;5087735;28;20086;-83
2023/03/11 00:28:33;;;;;;;1.58;1.05;;;;;;;;;;5087982;28;20032;-83
2023/03/11 00:30:59;;;;;;;1.77;0.88;;;;;;;;;;5077693;28;20036;-83
2023/03/11 00:33:24;;;;;;;0.80;0.75;;;;;;;;;;5086814;28;20032;-82
2023/03/11 00:35:50;;;;;;;1.13;0.50;;;;;;;;;;5087685;28;20029;-85
2023/03/11 00:38:16;;;;;;;0.55;0.55;;;;;;;;;;5090987;28;20096;-85
2023/03/11 00:40:43;;;;;;;1.70;1.00;;;;;;;;;;5085408;28;20019;-82
2023/03/11 00:43:09;;;;;;;12.05;1.30;;;;;;;;;;5088412;28;20028;-79
2023/03/11 00:45:35;;;;;;;1.20;0.80;;;;;;;;;;5089208;28;20371;-80
2023/03/11 00:48:00;;;;;;;2.33;1.10;;;;;;;;;;5085632;28;20117;-80
2023/03/11 00:50:32;;;;;;;1.70;1.08;;;;;;;;;;5084836;28;20047;-81
2023/03/11 00:52:58;;;;;;;0.63;0.63;;;;;;;;;;5086851;28;20035;-81
2023/03/11 00:55:29;;;;;;;1.05;0.98;;;;;;;;;;5088324;28;20032;-83
2023/03/11 00:57:58;;;;;;;0.70;0.70;;;;;;;;;;5090467;28;20020;-83
2023/03/11 01:00:26;;;;;;;1.05;0.90;;;;;;;;;;5084474;28;20520;-82
2023/03/11 01:02:53;;;;;;;1.98;1.20;;;;;;;;;;5084559;28;20039;-82
2023/03/11 01:05:21;;;;;;;1.23;1.08;;;;;;;;;;5079930;28;20040;-86
2023/03/11 01:07:46;;;;;;;3.85;1.40;;;;;;;;;;5090943;28;20112;-83
2023/03/11 01:10:12;;;;;;;3.03;1.60;;;;;;;;;;5085496;28;20051;-81
2023/03/11 01:12:37;;;;;;;2.28;1.27;;;;;;;;;;5089101;28;20028;-82
2023/03/11 01:15:04;;;;;;;4.53;1.77;;;;;;;;;;5105592;28;20023;-82
2023/03/11 01:17:29;;;;;;;2.97;1.90;;;;;;;;;;5079754;28;20028;-81
2023/03/11 01:19:55;;;;;;;5.00;2.65;;;;;;;;;;5081785;28;20490;-82
2023/03/11 01:22:20;;;;;;;2.92;1.77;;;;;;;;;;5086846;28;20028;-83
2023/03/11 01:24:45;;;;;;;2.05;1.30;;;;;;;;;;5086389;28;20035;-82
2023/03/11 01:27:11;;;;;;;2.50;1.70;;;;;;;;;;5106070;28;20020;-84
2023/03/11 01:29:36;;;;;;;2.63;1.67;;;;;;;;;;5084009;28;20027;-83
2023/03/11 01:32:02;;;;;;;1.38;0.90;;;;;;;;;;5086456;28;21215;-83
2023/03/11 01:34:27;;;;;;;1.48;1.13;;;;;;;;;;5079663;28;20131;-83
2023/03/11 01:36:52;;;;;;;5.38;1.50;;;;;;;;;;5077044;28;20490;-83
2023/03/11 01:39:18;;;;;;;1.65;1.08;;;;;;;;;;5086318;28;20074;-84
2023/03/11 01:41:43;;;;;;;0.63;0.45;;;;;;;;;;5081254;28;20059;-83
2023/03/11 01:44:12;;;;;;;1.05;0.93;;;;;;;;;;5087808;28;20020;-81
2023/03/11 01:46:52;;;;;;;0.50;0.47;;;;;;;;;;5089024;28;20043;-81
2023/03/11 01:49:22;;;;;;;1.02;0.50;;;;;;;;;;5108638;28;20059;-81
2023/03/11 01:51:51;;;;;;;0.32;0.30;;;;;;;;;;5078587;28;20032;-80
2023/03/11 01:54:22;;;;;;;1.27;0.73;;;;;;;;;;5080073;28;20032;-79
2023/03/11 01:56:49;;;;;;;2.10;1.38;;;;;;;;;;5081987;28;20035;-81
2023/03/11 01:59:18;;;;;;;2.58;1.55;;;;;;;;;;5086979;28;20035;-81
2023/03/11 02:02:12;;;;;;;1.35;1.25;;;;;;;;;;5080618;28;20020;-81
2023/03/11 02:04:39;;;;;;;2.30;1.17;;;;;;;;;;5088034;28;20056;-80
2023/03/11 02:07:07;;;;;;;2.03;1.00;;;;;;;;;;5083189;28;20085;-79
2023/03/11 02:09:33;;;;;;;1.38;1.10;;;;;;;;;;5084088;28;20039;-81
2023/03/11 02:11:58;;;;;;;1.38;0.85;;;;;;;;;;5092489;28;20024;-81
2023/03/11 02:14:25;;;;;;;1.63;1.17;;;;;;;;;;5105923;28;20031;-80
2023/03/11 02:16:50;;;;;;;2.47;1.50;;;;;;;;;;5086235;28;20372;-80
2023/03/11 02:19:29;;;;;;;2.95;1.77;;;;;;;;;;5086975;28;20028;-80
2023/03/11 02:21:56;;;;;;;4.25;1.83;;;;;;;;;;5090271;28;20396;-82
2023/03/11 02:24:35;;;;;;;3.00;1.70;;;;;;;;;;5081540;28;20055;-81
2023/03/11 02:27:08;;;;;;;2.72;1.50;;;;;;;;;;5083969;28;20043;-79
2023/03/11 02:29:34;;;;;;;1.10;1.00;;;;;;;;;;5083203;28;20471;-80
2023/03/11 02:32:03;;;;;;;0.70;0.68;;;;;;;;;;5106985;28;20036;-80
2023/03/11 02:34:31;;;;;;;0.50;0.50;;;;;;;;;;5089022;28;20029;-81
2023/03/11 02:36:58;;;;;;;1.08;0.98;;;;;;;;;;5082553;28;20024;-80
2023/03/11 02:39:34;;;;;;;0.65;0.60;;;;;;;;;;5084966;28;20060;-82
2023/03/11 02:42:04;;;;;;;3.72;1.30;;;;;;;;;;5084617;28;20024;-80
2023/03/11 02:44:29;;;;;;;2.95;1.98;;;;;;;;;;5082681;28;20031;-80
2023/03/11 02:46:55;;;;;;;2.78;1.65;;;;;;;;;;5082996;28;20036;-80
2023/03/11 02:49:21;;;;;;;3.05;1.83;;;;;;;;;;5081519;28;20031;-80
2023/03/11 02:51:47;;;;;;;3.70;1.70;;;;;;;;;;5082416;28;20043;-81
2023/03/11 02:54:12;;;;;;;4.72;2.33;;;;;;;;;;5085688;28;20475;-79
2023/03/11 02:56:38;;;;;;;2.65;1.67;;;;;;;;;;5091695;28;20031;-79
2023/03/11 02:59:03;;;;;;;4.82;2.40;;;;;;;;;;5086705;28;20112;-79
2023/03/11 03:01:29;;;;;;;3.95;2.38;;;;;;;;;;5106817;28;20093;-80
2023/03/11 03:03:55;;;;;;;0.65;0.65;;;;;;;;;;5087873;28;20024;-80
2023/03/11 03:06:21;;;;;;;0.45;0.45;;;;;;;;;;5083879;28;20020;-79
2023/03/11 03:08:46;;;;;;;0.43;0.25;;;;;;;;;;5083904;28;20064;-79
2023/03/11 03:11:12;;;;;;;0.40;0.40;;;;;;;;;;5087378;28;20033;-81
2023/03/11 03:13:37;;;;;;;0.10;0.10;;;;;;;;;;5086629;28;20030;-80
2023/03/11 03:16:03;;;;;;;0.30;0.30;;;;;;;;;;5106640;28;20027;-80
2023/03/11 03:18:28;;;;;;;0.52;0.30;;;;;;;;;;5085668;28;20020;-82
2023/03/11 03:20:54;;;;;;;0.90;0.30;;;;;;;;;;5086172;28;20702;-81
2023/03/11 03:23:20;;;;;;;0.30;0.25;;;;;;;;;;5085902;28;20028;-81
2023/03/11 03:25:45;;;;;;;0.15;0.15;;;;;;;;;;5086894;28;20028;-81
2023/03/11 03:28:12;;;;;;;0.20;0.20;;;;;;;;;;5089282;28;20051;-80
2023/03/11 03:30:38;;;;;;;0.10;0.10;;;;;;;;;;5082110;28;20566;-80
2023/03/11 03:33:03;;;;;;;1.90;0.20;;;;;;;;;;5082874;28;20409;-79
2023/03/11 03:35:29;;;;;;;0.10;0.10;;;;;;;;;;5081975;28;20025;-79
2023/03/11 03:37:55;;;;;;;0.10;0.10;;;;;;;;;;5087133;28;20028;-81
2023/03/11 03:40:20;;;;;;;0.35;0.20;;;;;;;;;;5083792;28;20087;-80
2023/03/11 03:42:46;;;;;;;0.20;0.20;;;;;;;;;;5084161;28;20028;-80
2023/03/11 03:45:12;;;;;;;0.10;0.10;;;;;;;;;;5092229;28;20088;-79
2023/03/11 03:47:37;;;;;;;0.15;0.15;;;;;;;;;;5090114;28;20031;-81
2023/03/11 03:50:05;;;;;;;0.30;0.30;;;;;;;;;;5088022;28;20063;-79
2023/03/11 03:52:30;;;;;;;0.08;0.08;;;;;;;;;;5084291;28;20047;-81
2023/03/11 03:54:55;;;;;;;0.20;0.20;;;;;;;;;;5090619;28;20036;-79
2023/03/11 03:57:21;;;;;;;0.15;0.10;;;;;;;;;;5086675;28;20498;-79
2023/03/11 03:59:46;;;;;;;0.00;0.00;;;;;;;;;;5087575;28;20028;-79
2023/03/11 04:02:12;;;;;;;0.05;0.05;;;;;;;;;;5089241;28;20111;-80
2023/03/11 04:04:37;;;;;;;0.17;0.17;;;;;;;;;;5091784;28;20028;-81
2023/03/11 04:07:05;;;;;;;0.10;0.10;;;;;;;;;;5084182;28;20028;-82
2023/03/11 04:09:31;;;;;;;0.20;0.20;;;;;;;;;;5084294;28;20035;-83
2023/03/11 04:11:56;;;;;;;0.10;0.10;;;;;;;;;;5084717;28;20032;-83
2023/03/11 04:14:22;;;;;;;0.08;0.08;;;;;;;;;;5086936;28;20028;-82
2023/03/11 04:16:47;;;;;;;0.63;0.10;;;;;;;;;;5090866;28;20116;-83
2023/03/11 04:19:12;;;;;;;0.25;0.20;;;;;;;;;;5086203;28;20020;-82
2023/03/11 04:21:38;;;;;;;0.10;0.10;;;;;;;;;;5089741;28;20448;-82
2023/03/11 04:24:03;;;;;;;0.05;0.05;;;;;;;;;;5083548;28;20035;-81
2023/03/11 04:26:29;;;;;;;0.10;0.10;;;;;;;;;;5087367;28;20047;-81
2023/03/11 04:28:55;;;;;;;0.00;0.00;;;;;;;;;;5091842;28;21411;-80
2023/03/11 04:31:20;;;;;;;0.28;0.20;;;;;;;;;;5082255;28;20418;-81
2023/03/11 04:33:46;;;;;;;0.38;0.38;;;;;;;;;;5083063;28;20032;-80
2023/03/11 04:36:12;;;;;;;0.10;0.10;;;;;;;;;;5086239;28;20102;-82
2023/03/11 04:38:38;;;;;;;0.10;0.10;;;;;;;;;;5093696;28;20024;-80
2023/03/11 04:41:05;;;;;;;0.10;0.10;;;;;;;;;;5084198;28;20491;-80
2023/03/11 04:43:31;;;;;;;0.10;0.10;;;;;;;;;;5085154;28;20031;-79
2023/03/11 04:45:56;;;;;;;0.10;0.10;;;;;;;;;;5089193;28;20024;-81
2023/03/11 04:48:23;;;;;;;0.10;0.10;;;;;;;;;;5083820;28;20119;-79
2023/03/11 04:50:49;;;;;;;0.30;0.20;;;;;;;;;;5087903;28;20029;-82
2023/03/11 04:53:14;;;;;;;0.17;0.13;;;;;;;;;;5091367;28;20403;-79
2023/03/11 04:55:40;;;;;;;2.03;0.17;;;;;;;;;;5084779;28;20029;-80
2023/03/11 04:58:05;;;;;;;0.10;0.10;;;;;;;;;;5082882;28;20027;-79
2023/03/11 05:00:31;;;;;;;0.08;0.08;;;;;;;;;;5087062;28;20076;-80
2023/03/11 05:02:56;;;;;;;0.20;0.10;;;;;;;;;;5086786;28;20078;-79
2023/03/11 05:05:22;;;;;;;0.20;0.10;;;;;;;;;;5091852;28;20031;-79
2023/03/11 05:07:48;;;;;;;0.10;0.10;;;;;;;;;;5082718;28;20051;-83
2023/03/11 05:10:20;;;;;;;0.30;0.15;;;;;;;;;;5086848;28;20024;-82
2023/03/11 05:12:46;;;;;;;0.30;0.30;;;;;;;;;;5084865;28;20023;-82
2023/03/11 05:15:12;;;;;;;0.10;0.10;;;;;;;;;;5084566;28;20058;-86
2023/03/11 05:17:37;;;;;;;0.00;0.00;;;;;;;;;;5084685;28;20127;-86
2023/03/11 05:20:06;;;;;;;0.20;0.20;;;;;;;;;;5083258;28;20027;-83
2023/03/11 05:22:32;;;;;;;0.10;0.10;;;;;;;;;;5105372;28;20068;-81
2023/03/11 05:24:57;;;;;;;0.20;0.20;;;;;;;;;;5091994;28;20035;-87
2023/03/11 05:27:23;;;;;;;0.22;0.20;;;;;;;;;;5085140;28;20693;-85
2023/03/11 05:29:48;;;;;;;0.13;0.13;;;;;;;;;;5081802;28;20051;-83
2023/03/11 05:32:14;;;;;;;0.05;0.05;;;;;;;;;;5084928;28;20503;-85
2023/03/11 05:34:39;;;;;;;0.10;0.10;;;;;;;;;;5088866;28;20032;-81
2023/03/11 05:37:05;;;;;;;0.10;0.10;;;;;;;;;;5083833;28;20033;-83
2023/03/11 05:39:31;;;;;;;0.30;0.20;;;;;;;;;;5084693;28;20497;-80
2023/03/11 05:41:56;;;;;;;0.22;0.20;;;;;;;;;;5085324;28;20051;-81
2023/03/11 05:44:31;;;;;;;0.10;0.10;;;;;;;;;;5079792;28;20106;-81
2023/03/11 05:46:56;;;;;;;0.10;0.10;;;;;;;;;;5082374;28;20044;-82
2023/03/11 05:49:22;;;;;;;0.32;0.30;;;;;;;;;;5088978;28;20024;-80
2023/03/11 05:51:49;;;;;;;0.55;0.30;;;;;;;;;;5086910;28;20114;-80
2023/03/11 05:54:14;;;;;;;0.10;0.10;;;;;;;;;;5080661;28;20349;-81
2023/03/11 05:56:41;;;;;;;0.65;0.20;;;;;;;;;;5083224;28;20107;-79
2023/03/11 05:59:07;;;;;;;4.28;0.32;;;;;;;;;;5089876;28;20031;-80
2023/03/11 06:01:38;;;;;;;0.00;0.00;;;;;;;;;;5084137;28;20118;-81
2023/03/11 06:04:03;;;;;;;0.17;0.10;;;;;;;;;;5078629;28;20039;-80
2023/03/11 06:06:29;;;;;;;0.50;0.28;;;;;;;;;;5081204;28;20020;-79
2023/03/11 06:08:55;;;;;;;0.40;0.20;;;;;;;;;;5081806;28;20155;-82
2023/03/11 06:11:24;;;;;;;0.10;0.10;;;;;;;;;;5090443;28;20081;-80
2023/03/11 06:13:53;;;;;;;0.65;0.15;;;;;;;;;;5077403;28;20115;-81
2023/03/11 06:16:18;;;;;;;0.20;0.20;;;;;;;;;;5080331;28;20039;-79
2023/03/11 06:18:44;;;;;;;0.17;0.17;;;;;;;;;;5086978;28;20495;-82
2023/03/11 06:21:15;;;;;;;0.08;0.08;;;;;;;;;;5076220;28;20020;-78
2023/03/11 06:23:41;;;;;;;0.20;0.20;;;;;;;;;;5078477;28;20060;-79
2023/03/11 06:26:06;;;;;;;0.10;0.10;;;;;;;;;;5080934;28;20055;-81
2023/03/11 06:28:32;;;;;;;0.10;0.10;;;;;;;;;;5080986;28;20073;-79
2023/03/11 06:31:16;;;;;;;0.10;0.10;;;;;;;;;;5080152;28;20032;-79
2023/03/11 06:33:41;;;;;;;0.10;0.10;;;;;;;;;;5083293;28;20048;-81
2023/03/11 06:36:07;;;;;;;0.20;0.20;;;;;;;;;;5081762;28;20032;-80
2023/03/11 06:38:33;;;;;;;0.10;0.10;;;;;;;;;;5099989;28;20035;-78
2023/03/11 06:41:00;;;;;;;0.10;0.10;;;;;;;;;;5076388;28;20111;-79
2023/03/11 06:43:30;;;;;;;0.10;0.10;;;;;;;;;;5081947;28;20032;-80
2023/03/11 06:45:55;;;;;;;0.10;0.10;;;;;;;;;;5086346;28;20498;-80
2023/03/11 06:48:21;;;;;;;0.10;0.10;;;;;;;;;;5079376;28;20103;-78
2023/03/11 06:50:57;;;;;;;0.08;0.08;;;;;;;;;;5082417;28;20392;-80
2023/03/11 06:53:24;;;;;;;1.02;0.30;;;;;;;;;;5085136;28;20438;-80
2023/03/11 06:55:58;;;;;;;0.03;0.03;;;;;;;;;;5083384;28;20024;-81
2023/03/11 06:58:24;;;;;;;0.10;0.10;;;;;;;;;;5077941;28;20059;-80
2023/03/11 07:00:49;;;;;;;0.10;0.10;;;;;;;;;;5085788;28;20052;-80
2023/03/11 07:03:14;;;;;;;1.42;0.65;;;;;;;;;;5079828;28;20122;-81
2023/03/11 07:05:40;;;;;;;0.10;0.10;;;;;;;;;;5076633;28;20052;-82
2023/03/11 07:08:05;;;;;;;0.20;0.20;;;;;;;;;;5085543;28;20031;-80
2023/03/11 07:10:31;;;;;;;0.17;0.17;;;;;;;;;;5080720;28;20537;-79
2023/03/11 07:12:56;;;;;;;0.10;0.10;;;;;;;;;;5081687;28;20099;-80
2023/03/11 07:15:21;;;;;;;0.15;0.15;;;;;;;;;;5085561;28;20130;-81
2023/03/11 07:17:47;;;;;;;0.13;0.13;;;;;;;;;;5088357;28;20028;-81
2023/03/11 07:20:12;;;;;;;0.35;0.20;;;;;;;;;;5084232;28;20135;-80
2023/03/11 07:22:38;;;;;;;0.20;0.20;;;;;;;;;;5079726;28;20032;-80
2023/03/11 07:25:04;;;;;;;0.20;0.20;;;;;;;;;;5088440;28;20034;-80
2023/03/11 07:27:29;;;;;;;0.82;0.40;;;;;;;;;;5081578;28;20028;-79
2023/03/11 07:29:54;;;;;;;0.20;0.20;;;;;;;;;;5089306;28;20027;-79
2023/03/11 07:32:20;;;;;;;0.30;0.30;;;;;;;;;;5090177;28;20037;-79
2023/03/11 07:34:45;;;;;;;0.20;0.20;;;;;;;;;;5079930;28;20048;-81
2023/03/11 07:37:11;;;;;;;0.10;0.10;;;;;;;;;;5086986;28;20028;-81
2023/03/11 07:39:36;;;;;;;0.10;0.10;;;;;;;;;;5088090;28;20027;-82
2023/03/11 07:42:03;;;;;;;0.20;0.20;;;;;;;;;;5084020;28;20132;-82
2023/03/11 07:44:28;;;;;;;0.30;0.30;;;;;;;;;;5079557;28;20024;-80
2023/03/11 07:46:54;;;;;;;0.32;0.32;;;;;;;;;;5081682;28;20036;-80
2023/03/11 07:49:19;;;;;;;0.35;0.25;;;;;;;;;;5080394;28;20040;-80
2023/03/11 07:51:45;;;;;;;1.20;0.30;;;;;;;;;;5087991;28;20593;-81
2023/03/11 07:54:11;;;;;;;0.47;0.45;;;;;;;;;;5102403;28;20028;-82
2023/03/11 07:56:37;;;;;;;0.17;0.17;;;;;;;;;;5081350;28;20028;-79
2023/03/11 07:59:03;;;;;;;0.60;0.40;;;;;;;;;;5080943;28;20031;-82
2023/03/11 08:01:35;;;;;;;1.15;0.30;;;;;;;;;;5086612;28;20110;-82
2023/03/11 08:04:03;;;;;;;3.75;1.83;;;;;;;;;;5088579;28;20357;-82
2023/03/11 08:06:31;;;;;;;0.30;0.30;;;;;;;;;;5081539;28;20036;-81
2023/03/11 08:08:58;;;;;;;1.13;0.30;;;;;;;;;;5080570;28;20051;-81
2023/03/11 08:11:23;;;;;;;0.60;0.32;;;;;;;;;;5083629;28;20027;-82
2023/03/11 08:13:49;;;;;;;0.57;0.57;;;;;;;;;;5090787;28;20102;-82
2023/03/11 08:16:17;;;;;;;0.45;0.15;;;;;;;;;;5087302;28;20023;-80
2023/03/11 08:18:44;;;;;;;0.30;0.30;;;;;;;;;;5083071;28;20027;-81
2023/03/11 08:21:15;;;;;;;0.20;0.20;;;;;;;;;;5083917;28;20032;-82
2023/03/11 08:23:42;;;;;;;0.35;0.35;;;;;;;;;;5082456;28;20433;-79
2023/03/11 08:26:12;;;;;;;0.32;0.30;;;;;;;;;;5084400;28;20461;-82
2023/03/11 08:28:38;;;;;;;1.55;0.85;;;;;;;;;;5079636;28;20051;-82
2023/03/11 08:31:12;;;;;;;0.20;0.20;;;;;;;;;;5078688;28;20052;-82
2023/03/11 08:33:37;;;;;;;1.38;0.70;;;;;;;;;;5079024;28;20044;-78
2023/03/11 08:36:03;;;;;;;0.40;0.40;;;;;;;;;;5085683;28;20038;-80
2023/03/11 08:38:30;;;;;;;0.80;0.57;;;;;;;;;;5082889;28;20034;-81
2023/03/11 08:40:56;;;;;;;0.22;0.22;;;;;;;;;;5083754;28;20039;-81
2023/03/11 08:43:21;;;;;;;0.80;0.47;;;;;;;;;;5082804;28;20028;-78
2023/03/11 08:45:46;;;;;;;0.45;0.43;;;;;;;;;;5101555;28;20685;-79
2023/03/11 08:48:12;;;;;;;0.47;0.40;;;;;;;;;;5087370;28;20028;-81
2023/03/11 08:50:42;;;;;;;1.33;0.82;;;;;;;;;;5085527;28;20115;-80
2023/03/11 08:53:07;;;;;;;0.63;0.50;;;;;;;;;;5081610;28;20020;-78
2023/03/11 08:55:33;;;;;;;0.22;0.22;;;;;;;;;;5087613;28;20035;-79
2023/03/11 08:57:59;;;;;;;0.30;0.30;;;;;;;;;;5080976;28;21464;-80
2023/03/11 09:00:24;;;;;;;0.90;0.45;;;;;;;;;;5082157;28;20400;-80
2023/03/11 09:02:51;;;;;;;0.50;0.50;;;;;;;;;;5085691;28;20107;-81
2023/03/11 09:05:17;;;;;;;1.02;0.47;;;;;;;;;;5088665;28;20460;-81
2023/03/11 09:07:43;;;;;;;0.38;0.32;;;;;;;;;;5103045;28;20024;-80
2023/03/11 09:10:12;;;;;;;1.00;0.73;;;;;;;;;;5084285;28;20065;-79
2023/03/11 09:12:37;;;;;;;1.93;0.47;;;;;;;;;;5082227;28;20040;-82
2023/03/11 09:15:04;;;;;;;0.28;0.28;;;;;;;;;;5085788;28;20652;-79
2023/03/11 09:17:30;;;;;;;0.30;0.30;;;;;;;;;;5078776;28;20035;-80
2023/03/11 09:19:55;;;;;;;0.25;0.25;;;;;;;;;;5088173;28;20032;-79
2023/03/11 09:22:21;;;;;;;0.63;0.50;;;;;;;;;;5081654;28;20385;-78
2023/03/11 09:24:46;;;;;;;1.08;0.85;;;;;;;;;;5085693;28;20382;-80
2023/03/11 09:27:14;;;;;;;0.65;0.50;;;;;;;;;;5102756;28;20032;-80
2023/03/11 09:29:39;;;;;;;0.70;0.47;;;;;;;;;;5083821;28;20141;-79
2023/03/11 09:32:05;;;;;;;0.40;0.40;;;;;;;;;;5087873;28;20120;-81
2023/03/11 09:34:31;;;;;;;0.45;0.40;;;;;;;;;;5083650;28;20032;-80
2023/03/11 09:36:56;;;;;;;0.43;0.40;;;;;;;;;;5081114;28;20030;-82
2023/03/11 09:39:21;;;;;;;0.20;0.20;;;;;;;;;;5084714;28;20028;-81
2023/03/11 09:41:56;;;;;;;0.30;0.30;;;;;;;;;;5078863;28;20034;-81
2023/03/11 09:44:40;;;;;;;0.38;0.30;;;;;;;;;;5085991;28;20063;-79
2023/03/11 09:47:37;;;;;;;0.73;0.50;;;;;;;;;;5084060;28;20172;-78
2023/03/11 09:50:14;;;;;;;0.70;0.38;;;;;;;;;;5088312;28;20035;-78
2023/03/11 09:52:43;;;;;;;0.40;0.40;;;;;;;;;;5078541;28;20020;-79
2023/03/11 09:55:21;;;;;;;1.47;0.50;;;;;;;;;;5103259;28;20074;-80
2023/03/11 09:57:47;;;;;;;0.95;0.50;;;;;;;;;;5083226;28;20085;-80
2023/03/11 10:00:17;;;;;;;1.17;0.65;;;;;;;;;;5086209;28;20035;-81
2023/03/11 10:02:43;;;;;;;1.52;0.60;;;;;;;;;;5085398;28;20874;-77
2023/03/11 10:05:27;;;;;;;0.45;0.30;;;;;;;;;;5077473;28;20063;-80
2023/03/11 10:08:03;;;;;;;0.40;0.30;;;;;;;;;;5084220;28;20395;-81
2023/03/11 10:10:37;;;;;;;0.70;0.22;;;;;;;;;;5077630;28;20024;-78
2023/03/11 10:13:12;;;;;;;0.13;0.13;;;;;;;;;;5083945;28;20082;-79
2023/03/11 10:15:48;;;;;;;1.55;0.43;;;;;;;;;;5083809;28;20028;-80
2023/03/11 10:18:25;;;;;;;0.40;0.40;;;;;;;;;;5087617;28;20111;-80
2023/03/11 10:20:51;;;;;;;0.30;0.30;;;;;;;;;;5103211;28;20040;-81
2023/03/11 10:23:31;;;;;;;0.47;0.40;;;;;;;;;;5081449;28;20510;-79
2023/03/11 10:26:15;;;;;;;0.80;0.80;;;;;;;;;;5078942;28;20487;-81
2023/03/11 10:29:12;;;;;;;0.88;0.60;;;;;;;;;;5104051;28;20141;-81
2023/03/11 10:31:56;;;;;;;2.47;0.57;;;;;;;;;;5085869;28;20028;-80
2023/03/11 10:34:43;;;;;;;0.82;0.20;;;;;;;;;;5084733;28;20086;-79
2023/03/11 10:37:14;;;;;;;0.30;0.30;;;;;;;;;;5081342;28;20113;-81
2023/03/11 10:39:39;;;;;;;0.38;0.38;;;;;;;;;;5081658;28;20464;-82
2023/03/11 10:42:12;;;;;;;1.52;0.80;;;;;;;;;;5080947;28;20090;-81
2023/03/11 10:44:40;;;;;;;1.48;0.70;;;;;;;;;;5079138;28;20046;-82
2023/03/11 10:47:16;;;;;;;2.25;0.65;;;;;;;;;;5103934;28;20197;-79
2023/03/11 10:49:41;;;;;;;0.35;0.32;;;;;;;;;;5081702;28;20020;-80
2023/03/11 10:52:06;;;;;;;0.10;0.10;;;;;;;;;;5080404;28;20042;-81
2023/03/11 10:54:47;;;;;;;2.08;0.73;;;;;;;;;;5084337;28;20391;-79
2023/03/11 10:57:27;;;;;;;2.15;0.85;;;;;;;;;;5085447;28;20020;-83
2023/03/11 10:59:53;;;;;;;0.73;0.40;;;;;;;;;;5087889;28;20093;-82
2023/03/11 11:02:27;;;;;;;0.40;0.40;;;;;;;;;;5089180;28;20105;-81
2023/03/11 11:05:07;;;;;;;0.28;0.28;;;;;;;;;;5083015;28;20146;-82
2023/03/11 11:07:37;;;;;;;2.60;0.82;;;;;;;;;;5083366;28;20021;-82
2023/03/11 11:10:13;;;;;;;5.35;1.85;;;;;;;;;;5086233;28;20043;-84
2023/03/11 11:12:53;;;;;;;1.63;1.00;;;;;;;;;;5088535;28;20027;-83
2023/03/11 11:15:37;;;;;;;1.35;1.23;;;;;;;;;;5087187;28;20024;-82
2023/03/11 11:18:13;;;;;;;2.38;1.15;;;;;;;;;;5088285;28;20043;-82
2023/03/11 11:20:57;;;;;;;1.83;1.13;;;;;;;;;;5108669;28;20068;-82
2023/03/11 11:23:34;;;;;;;3.10;1.02;;;;;;;;;;5087981;28;20028;-79
2023/03/11 11:26:03;;;;;;;6.30;2.13;;;;;;;;;;5085886;28;20721;-81
2023/03/11 11:28:30;;;;;;;1.97;0.97;;;;;;;;;;5088838;28;20024;-84
2023/03/11 11:31:04;;;;;;;1.17;0.82;;;;;;;;;;5084561;28;20483;-85
2023/03/11 11:33:37;;;;;;;1.73;0.60;;;;;;;;;;5108389;28;20433;-82
2023/03/11 11:36:03;;;;;;;0.73;0.65;;;;;;;;;;5087339;28;20038;-83
2023/03/11 11:38:30;;;;;;;0.40;0.30;;;;;;;;;;5085032;28;20083;-83
2023/03/11 11:41:00;;;;;;;0.88;0.50;;;;;;;;;;5083679;28;20055;-82
2023/03/11 11:43:41;;;;;;;1.17;0.57;;;;;;;;;;5082391;28;20036;-81
2023/03/11 11:46:17;;;;;;;1.02;0.57;;;;;;;;;;5090320;28;20028;-79
2023/03/11 11:49:04;;;;;;;0.93;0.50;;;;;;;;;;5085663;28;20033;-83
2023/03/11 11:51:34;;;;;;;0.52;0.50;;;;;;;;;;5079739;28;20925;-82
2023/03/11 11:54:12;;;;;;;0.30;0.30;;;;;;;;;;5083717;28;20456;-83
2023/03/11 11:56:39;;;;;;;0.75;0.30;;;;;;;;;;5079414;28;20043;-82
2023/03/11 11:59:14;;;;;;;0.85;0.40;;;;;;;;;;5083832;28;20051;-81
2023/03/11 12:01:57;;;;;;;0.38;0.38;;;;;;;;;;5082350;28;20025;-81
2023/03/11 12:04:47;;;;;;;1.27;0.90;;;;;;;;;;5088519;28;20089;-83
2023/03/11 12:07:39;;;;;;;1.73;0.73;;;;;;;;;;5106356;28;20032;-79
2023/03/11 12:10:25;;;;;;;3.05;0.73;;;;;;;;;;5081329;28;20465;-81
2023/03/11 12:13:04;;;;;;;1.98;1.00;;;;;;;;;;5086593;28;20020;-82
2023/03/11 12:15:37;;;;;;;1.03;0.37;;;;;;;;;;5084701;28;20031;-80
2023/03/11 12:18:09;;;;;;;0.90;0.75;;;;;;;;;;5087933;28;20256;-79
2023/03/11 12:20:38;;;;;;;0.47;0.28;;;;;;;;;;5079200;28;20032;-80
2023/03/11 12:23:15;;;;;;;0.57;0.40;;;;;;;;;;5085189;28;20388;-79
2023/03/11 12:25:59;;;;;;;3.60;0.55;;;;;;;;;;5079978;28;20036;-80
2023/03/11 12:28:38;;;;;;;0.57;0.38;;;;;;;;;;5082729;28;20023;-80
2023/03/11 12:31:08;;;;;;;3.70;0.65;;;;;;;;;;5083960;28;20039;-80
2023/03/11 12:33:52;;;;;;;1.80;0.85;;;;;;;;;;5084451;28;20040;-79
2023/03/11 12:36:34;;;;;;;0.20;0.20;;;;;;;;;;5085630;28;20036;-83
2023/03/11 12:39:04;;;;;;;0.28;0.28;;;;;;;;;;5106040;28;20552;-82
2023/03/11 12:41:32;;;;;;;0.43;0.43;;;;;;;;;;5087135;28;20024;-81
2023/03/11 12:44:01;;;;;;;0.32;0.20;;;;;;;;;;5084279;28;20111;-80
2023/03/11 12:46:57;;;;;;;0.57;0.47;;;;;;;;;;5081459;28;20019;-79
2023/03/11 12:49:31;;;;;;;0.70;0.40;;;;;;;;;;5089171;28;20464;-82
2023/03/11 12:52:14;;;;;;;0.50;0.35;;;;;;;;;;5089548;28;20035;-79
2023/03/11 12:54:41;;;;;;;0.17;0.17;;;;;;;;;;5104694;28;20107;-79
2023/03/11 12:57:12;;;;;;;0.70;0.20;;;;;;;;;;5078278;28;20024;-80
2023/03/11 13:00:16;;;;;;;0.55;0.40;;;;;;;;;;5107836;28;20032;-79
2023/03/11 13:03:12;;;;;;;1.45;0.68;;;;;;;;;;5089297;28;20031;-79
2023/03/11 13:05:41;;;;;;;1.33;0.68;;;;;;;;;;5083903;28;20032;-79
2023/03/11 13:08:46;;;;;;;2.17;0.88;;;;;;;;;;5077073;28;20028;-82
2023/03/11 13:11:30;;;;;;;2.70;0.50;;;;;;;;;;5075433;28;20046;-79
2023/03/11 13:14:31;;;;;;;0.50;0.40;;;;;;;;;;5085934;28;20032;-81
2023/03/11 13:17:23;;;;;;;0.95;0.52;;;;;;;;;;5080001;28;20032;-78
2023/03/11 13:19:51;;;;;;;0.60;0.47;;;;;;;;;;5086833;28;20376;-82
2023/03/11 13:22:50;;;;;;;1.27;0.98;;;;;;;;;;5083817;28;20025;-79
2023/03/11 13:25:54;;;;;;;0.70;0.60;;;;;;;;;;5085921;28;20025;-82
2023/03/11 13:28:50;;;;;;;0.95;0.80;;;;;;;;;;5047461;28;20070;-78
2023/03/11 13:31:28;;;;;;;1.15;1.05;;;;;;;;;;5087375;28;20035;-80
2023/03/11 13:33:56;;;;;;;1.10;0.52;;;;;;;;;;5080641;28;20459;-81
2023/03/11 13:36:46;;;;;;;1.65;0.80;;;;;;;;;;5104534;28;20062;-79
2023/03/11 13:39:27;;;;;;;1.05;0.85;;;;;;;;;;5085698;28;20032;-78
2023/03/11 13:41:53;;;;;;;1.10;1.00;;;;;;;;;;5081342;28;20035;-78
2023/03/11 13:44:18;;;;;;;1.33;0.55;;;;;;;;;;5087223;28;20464;-79
2023/03/11 13:46:48;;;;;;;2.10;1.10;;;;;;;;;;5081757;28;20106;-79
2023/03/11 13:49:26;;;;;;;1.02;0.90;;;;;;;;;;5077395;28;20111;-80
2023/03/11 13:51:53;;;;;;;0.47;0.47;;;;;;;;;;5086006;28;20483;-81
2023/03/11 13:54:34;;;;;;;0.35;0.32;;;;;;;;;;5080796;28;20027;-80
2023/03/11 13:57:02;;;;;;;0.40;0.38;;;;;;;;;;5082251;28;20023;-83
2023/03/11 13:59:28;;;;;;;1.20;0.40;;;;;;;;;;5081099;28;20043;-81
2023/03/11 14:02:00;;;;;;;0.35;0.22;;;;;;;;;;5090461;28;20102;-79
2023/03/11 14:04:28;;;;;;;0.73;0.38;;;;;;;;;;5105555;28;20093;-80
2023/03/11 14:06:54;;;;;;;0.50;0.50;;;;;;;;;;5085324;28;20069;-80
2023/03/11 14:09:21;;;;;;;0.32;0.30;;;;;;;;;;5106923;28;20032;-82
2023/03/11 14:11:47;;;;;;;1.20;0.65;;;;;;;;;;5079472;28;20119;-80
2023/03/11 14:14:58;;;;;;;2.95;0.57;;;;;;;;;;5085097;28;20416;-80
2023/03/11 14:17:23;;;;;;;0.50;0.45;;;;;;;;;;5076244;28;20032;-81
2023/03/11 14:20:25;;;;;;;1.42;0.70;;;;;;;;;;5084388;28;20029;-83
2023/03/11 14:22:53;;;;;;;0.50;0.45;;;;;;;;;;5036465;28;20036;-81
2023/03/11 14:25:25;;;;;;;0.43;0.43;;;;;;;;;;5073761;28;20070;-81
2023/03/11 14:27:57;;;;;;;0.38;0.38;;;;;;;;;;5083661;28;20421;-81
2023/03/11 14:30:25;;;;;;;1.38;1.02;;;;;;;;;;5078444;28;20365;-81
2023/03/11 14:33:00;;;;;;;0.57;0.57;;;;;;;;;;5084188;28;20123;-81
2023/03/11 14:35:26;;;;;;;1.60;0.70;;;;;;;;;;5084924;28;20044;-83
2023/03/11 14:37:52;;;;;;;1.60;0.50;;;;;;;;;;5090101;28;20824;-81
2023/03/11 14:40:32;;;;;;;0.60;0.50;;;;;;;;;;5088989;28;20028;-82
2023/03/11 14:43:05;;;;;;;4.78;0.68;;;;;;;;;;5083941;28;20081;-82
2023/03/11 14:45:36;;;;;;;0.60;0.52;;;;;;;;;;5082461;28;20038;-79
2023/03/11 14:48:12;;;;;;;1.23;0.52;;;;;;;;;;5090399;28;20070;-80
2023/03/11 14:50:38;;;;;;;1.08;0.90;;;;;;;;;;5081482;28;20029;-84
2023/03/11 14:53:22;;;;;;;1.60;0.85;;;;;;;;;;5084107;28;20024;-82
2023/03/11 14:56:03;;;;;;;1.08;0.75;;;;;;;;;;5080615;28;20024;-81
2023/03/11 14:58:37;;;;;;;1.80;1.27;;;;;;;;;;5086759;28;20050;-83
2023/03/11 15:01:03;;;;;;;2.50;1.42;;;;;;;;;;5086376;28;20107;-80